Upstream stations:
Downstream station:
SHEF ID: BFFO2 Cimarron River near Buffalo, OK
STATION TYPE:
Regulating: Stage = 6.00, Flow = 750
PRECIP STAGE RIV-FLOW BAT-LOAD
in ft cfs volt
Ccp-Rev Ccp-Rev Ccp-Rev Ccp-Rev
(US/Central)
02/09 00:00 0.00 3.37 21 12.73
02/09 01:00 0.00 3.35 19 12.73
02/09 02:00 0.00 3.37 21 12.65
02/09 03:00 0.00 3.33 17 12.65
02/09 04:00 0.00 3.33 17 12.65
02/09 05:00 0.00 3.32 16 12.65
02/09 06:00 0.00 3.35 19 12.57
02/09 07:00 0.00 3.32 16 12.57
02/09 08:00 0.00 3.32 16 12.57
02/09 09:00 0.00 3.35 19 13.44
02/09 10:00 0.00 3.34 18 13.60
02/09 11:00 0.00 3.34 18 13.60
02/09 12:00 0.00 3.33 17 13.60
02/09 13:00 0.00 3.32 16 ----
02/09 14:00 0.00 3.33 17 13.60
02/09 15:00 0.00 3.33 17 13.53
02/09 16:00 0.00 3.33 17 13.60
02/09 17:00 0.00 3.35 19 13.44
02/09 18:00 0.00 3.32 16 13.21
02/09 19:00 0.00 3.34 18 12.89
02/09 20:00 0.00 3.34 18 12.81
02/09 21:00 0.00 3.35 19 12.81
02/09 22:00 0.00 3.33 17 12.81
02/09 23:00 0.00 3.33 17 12.73